createdAt,value
2022-11-23T00:01:20.219Z,3.00
2022-11-23T00:03:50.257Z,2.97
2022-11-23T00:06:19.311Z,2.50
2022-11-23T00:08:47.214Z,2.28
2022-11-23T00:11:15.425Z,2.63
2022-11-23T00:13:43.635Z,2.60
2022-11-23T00:16:14.421Z,3.30
2022-11-23T00:18:44.119Z,2.60
2022-11-23T00:21:14.068Z,2.05
2022-11-23T00:23:42.052Z,2.35
2022-11-23T00:26:09.977Z,2.83
2022-11-23T00:28:40.363Z,2.50
2022-11-23T00:31:11.851Z,3.40
2022-11-23T00:33:40.108Z,2.85
2022-11-23T00:36:12.265Z,2.55
2022-11-23T00:38:40.596Z,18.60
2022-11-23T00:41:10.570Z,10.00
2022-11-23T00:43:38.653Z,3.35
2022-11-23T00:46:09.202Z,4.97
2022-11-23T00:48:37.593Z,7.55
2022-11-23T00:51:07.546Z,24.40
2022-11-23T00:53:37.377Z,12.40
2022-11-23T00:56:06.183Z,9.13
2022-11-23T00:58:34.594Z,8.48
2022-11-23T01:01:05.593Z,6.03
2022-11-23T01:03:36.816Z,4.82
2022-11-23T01:06:07.272Z,3.42
2022-11-23T01:08:37.135Z,2.85
2022-11-23T01:11:06.742Z,2.30
2022-11-23T01:13:36.644Z,2.95
2022-11-23T01:16:06.536Z,3.55
2022-11-23T01:18:34.487Z,2.83
2022-11-23T01:21:02.891Z,8.00
2022-11-23T01:23:32.360Z,5.07
2022-11-23T01:26:05.776Z,8.10
2022-11-23T01:28:34.501Z,5.85
2022-11-23T01:31:07.464Z,3.30
2022-11-23T01:33:35.707Z,2.90
2022-11-23T01:36:10.826Z,2.55
2022-11-23T01:38:38.785Z,2.95
2022-11-23T01:41:09.574Z,2.50
2022-11-23T01:43:37.671Z,2.45
2022-11-23T01:46:06.345Z,2.42
2022-11-23T01:48:38.750Z,2.15
2022-11-23T01:51:10.283Z,2.53
2022-11-23T01:53:39.796Z,2.35
2022-11-23T01:56:14.031Z,2.45
2022-11-23T01:58:45.936Z,2.53
2022-11-23T02:01:15.118Z,2.17
2022-11-23T02:03:44.575Z,2.45
2022-11-23T02:06:16.355Z,2.40
2022-11-23T02:08:44.828Z,2.50
2022-11-23T02:11:15.349Z,2.28
2022-11-23T02:13:45.762Z,2.70
2022-11-23T02:16:14.936Z,2.20
2022-11-23T02:18:45.591Z,2.13
2022-11-23T02:21:14.209Z,2.72
2022-11-23T02:23:56.505Z,2.05
2022-11-23T02:26:28.107Z,2.45
2022-11-23T02:29:01.697Z,2.42
2022-11-23T02:31:32.101Z,2.42
2022-11-23T02:34:00.125Z,2.88
2022-11-23T02:36:36.275Z,2.83
2022-11-23T02:39:10.737Z,2.72
2022-11-23T02:41:43.540Z,2.65
2022-11-23T02:44:22.249Z,2.72
2022-11-23T02:46:51.704Z,2.50
2022-11-23T02:49:19.792Z,2.33
2022-11-23T02:51:47.804Z,2.83
2022-11-23T02:54:15.719Z,2.50
2022-11-23T02:56:45.037Z,2.35
2022-11-23T02:59:13.034Z,2.20
2022-11-23T03:01:44.430Z,2.53
2022-11-23T03:04:14.545Z,1.95
2022-11-23T03:06:42.536Z,1.80
2022-11-23T03:09:10.924Z,1.85
2022-11-23T03:11:38.901Z,1.95
2022-11-23T03:14:08.197Z,2.30
2022-11-23T03:16:44.096Z,2.00
2022-11-23T03:19:12.850Z,2.35
2022-11-23T03:21:40.862Z,2.05
2022-11-23T03:24:09.351Z,2.10
2022-11-23T03:26:38.175Z,1.75
2022-11-23T03:29:12.696Z,2.45
2022-11-23T03:31:41.490Z,2.10
2022-11-23T03:34:13.285Z,1.95
2022-11-23T03:36:41.652Z,1.90
2022-11-23T03:39:10.031Z,1.80
2022-11-23T03:41:56.441Z,2.40
2022-11-23T03:44:31.526Z,2.25
2022-11-23T03:46:59.559Z,2.10
2022-11-23T03:49:28.908Z,2.72
2022-11-23T03:51:56.978Z,2.80
2022-11-23T03:54:24.967Z,2.05
2022-11-23T03:56:52.959Z,2.40
2022-11-23T03:59:20.897Z,2.22
2022-11-23T04:01:50.136Z,2.20
2022-11-23T04:04:25.957Z,2.15
2022-11-23T04:07:00.228Z,2.15
2022-11-23T04:09:33.059Z,2.05
2022-11-23T04:12:04.627Z,2.38
2022-11-23T04:14:33.029Z,2.30
2022-11-23T04:17:03.292Z,3.83
2022-11-23T04:19:32.096Z,1.95
2022-11-23T04:22:00.519Z,2.38
2022-11-23T04:24:32.950Z,2.80
2022-11-23T04:27:03.929Z,2.33
2022-11-23T04:29:32.328Z,2.40
2022-11-23T04:32:01.746Z,2.00
2022-11-23T04:34:29.869Z,1.77
2022-11-23T04:36:57.894Z,2.17
2022-11-23T04:39:33.848Z,2.55
2022-11-23T04:42:19.894Z,2.08
2022-11-23T04:44:53.054Z,2.10
2022-11-23T04:47:22.998Z,2.00
2022-11-23T04:49:51.097Z,1.92
2022-11-23T04:52:20.523Z,1.83
2022-11-23T04:54:51.428Z,2.33
2022-11-23T04:57:19.513Z,2.38
2022-11-23T04:59:49.310Z,2.08
2022-11-23T05:02:17.465Z,2.30
2022-11-23T05:04:46.808Z,3.05
2022-11-23T05:07:17.015Z,2.45
2022-11-23T05:09:50.284Z,1.90
2022-11-23T05:12:19.946Z,1.90
2022-11-23T05:14:47.939Z,1.80
2022-11-23T05:17:21.197Z,2.45
2022-11-23T05:19:51.665Z,1.80
2022-11-23T05:22:20.734Z,1.92
2022-11-23T05:24:48.820Z,2.25
2022-11-23T05:27:20.412Z,2.63
2022-11-23T05:29:48.376Z,2.47
2022-11-23T05:32:16.284Z,1.95
2022-11-23T05:34:44.393Z,1.88
2022-11-23T05:37:16.331Z,2.20
2022-11-23T05:39:53.300Z,2.10
2022-11-23T05:42:28.599Z,2.30
2022-11-23T05:45:01.417Z,2.10
2022-11-23T05:47:38.398Z,2.10
2022-11-23T05:50:10.439Z,1.90
2022-11-23T05:52:44.157Z,1.92
2022-11-23T05:55:12.289Z,2.03
2022-11-23T05:57:40.278Z,2.60
2022-11-23T06:00:11.260Z,2.75
2022-11-23T06:02:46.987Z,2.25
2022-11-23T06:05:14.920Z,2.00
2022-11-23T06:07:53.828Z,2.55
2022-11-23T06:10:26.692Z,2.50
2022-11-23T06:12:54.788Z,2.15
2022-11-23T06:15:24.600Z,2.42
2022-11-23T06:17:52.604Z,2.42
2022-11-23T06:20:22.738Z,2.10
2022-11-23T06:23:00.703Z,2.00
2022-11-23T06:25:30.065Z,2.47
2022-11-23T06:28:14.188Z,2.22
2022-11-23T06:30:45.624Z,1.92
2022-11-23T06:33:15.400Z,2.28
2022-11-23T06:35:54.552Z,1.60
2022-11-23T06:38:24.396Z,1.88
2022-11-23T06:41:00.799Z,2.22
2022-11-23T06:43:31.045Z,2.60
2022-11-23T06:46:00.365Z,2.30
2022-11-23T06:48:30.647Z,2.05
2022-11-23T06:51:00.423Z,2.10
2022-11-23T06:53:31.011Z,4.68
2022-11-23T06:56:03.785Z,4.28
2022-11-23T06:58:33.299Z,6.57
2022-11-23T07:01:06.342Z,4.80
2022-11-23T07:03:40.435Z,3.47
2022-11-23T07:06:20.894Z,4.50
2022-11-23T07:08:51.670Z,3.58
2022-11-23T07:11:30.472Z,2.35
2022-11-23T07:13:58.582Z,2.83
2022-11-23T07:16:28.985Z,2.47
2022-11-23T07:18:59.237Z,2.55
2022-11-23T07:21:27.506Z,2.85
2022-11-23T07:23:56.777Z,4.22
2022-11-23T07:26:24.743Z,8.27
2022-11-23T07:28:52.639Z,15.43
2022-11-23T07:31:21.560Z,11.55
2022-11-23T07:33:49.634Z,8.05
2022-11-23T07:36:18.144Z,7.32
2022-11-23T07:38:46.843Z,6.40
2022-11-23T07:41:18.376Z,4.55
2022-11-23T07:44:21.668Z,4.35
2022-11-23T07:46:54.574Z,3.45
2022-11-23T07:49:22.659Z,3.00
2022-11-23T07:51:50.566Z,2.80
2022-11-23T07:54:23.486Z,2.10
2022-11-23T07:56:53.111Z,3.78
2022-11-23T07:59:21.101Z,3.20
2022-11-23T08:01:53.041Z,2.65
2022-11-23T08:04:23.966Z,3.10
2022-11-23T08:06:51.917Z,2.20
2022-11-23T08:09:19.919Z,2.25
2022-11-23T08:11:47.864Z,1.88
2022-11-23T08:14:17.134Z,1.98
2022-11-23T08:16:45.169Z,2.35
2022-11-23T08:19:13.176Z,2.60
2022-11-23T08:21:41.272Z,3.15
2022-11-23T08:24:09.685Z,2.50
2022-11-23T08:26:37.738Z,2.25
2022-11-23T08:29:06.666Z,2.03
2022-11-23T08:31:36.052Z,2.42
2022-11-23T08:34:04.054Z,2.13
2022-11-23T08:36:32.253Z,1.70
2022-11-23T08:39:00.354Z,1.95
2022-11-23T08:41:28.499Z,2.13
2022-11-23T08:43:56.486Z,2.40
2022-11-23T08:46:24.939Z,2.20
2022-11-23T08:48:54.209Z,2.50
2022-11-23T08:51:23.130Z,2.25
2022-11-23T08:53:51.240Z,1.85
2022-11-23T08:56:19.539Z,2.15
2022-11-23T08:58:47.997Z,2.15
2022-11-23T09:01:18.093Z,1.98
2022-11-23T09:03:46.254Z,2.22
2022-11-23T09:06:15.526Z,2.30
2022-11-23T09:08:43.495Z,2.50
2022-11-23T09:11:13.267Z,2.70
2022-11-23T09:13:41.714Z,3.73
2022-11-23T09:16:10.815Z,2.50
2022-11-23T09:18:39.085Z,2.75
2022-11-23T09:21:07.479Z,2.67
2022-11-23T09:23:36.942Z,3.03
2022-11-23T09:26:06.047Z,2.88
2022-11-23T09:28:34.741Z,2.35
2022-11-23T09:31:05.322Z,2.25
2022-11-23T09:33:33.270Z,2.60
2022-11-23T09:36:02.631Z,1.90
2022-11-23T09:38:55.084Z,2.80
2022-11-23T09:41:54.490Z,2.00
2022-11-23T09:44:28.504Z,2.30
2022-11-23T09:47:10.194Z,2.60
2022-11-23T09:49:45.844Z,2.92
2022-11-23T09:52:17.726Z,2.20
2022-11-23T09:54:48.313Z,1.83
2022-11-23T09:57:22.783Z,2.50
2022-11-23T09:59:55.749Z,2.40
2022-11-23T10:02:26.407Z,3.20
2022-11-23T10:04:55.538Z,2.50
2022-11-23T10:07:43.630Z,2.40
2022-11-23T10:10:23.873Z,2.77
2022-11-23T10:13:01.993Z,2.40
2022-11-23T10:15:34.453Z,2.80
2022-11-23T10:18:23.994Z,2.80
2022-11-23T10:21:00.482Z,3.00
2022-11-23T10:23:43.217Z,2.77
2022-11-23T10:26:16.610Z,3.20
2022-11-23T10:28:47.527Z,2.63
2022-11-23T10:31:17.660Z,3.30
2022-11-23T10:33:54.885Z,2.80
2022-11-23T10:36:22.902Z,2.30
2022-11-23T10:38:52.358Z,2.70
2022-11-23T10:41:20.341Z,3.17
2022-11-23T10:43:53.896Z,2.50
2022-11-23T10:46:31.951Z,4.03
2022-11-23T10:49:19.363Z,3.03
2022-11-23T10:51:54.870Z,2.10
2022-11-23T10:54:30.464Z,2.73
2022-11-23T10:57:00.909Z,1.90
2022-11-23T10:59:37.342Z,2.10
2022-11-23T11:02:25.983Z,2.20
2022-11-23T11:05:46.007Z,4.00
2022-11-23T11:08:16.861Z,2.80
2022-11-23T11:10:49.985Z,3.47
2022-11-23T11:13:25.807Z,3.03
2022-11-23T11:15:56.841Z,4.40
2022-11-23T11:18:29.808Z,6.17
2022-11-23T11:21:00.480Z,7.60
2022-11-23T11:23:31.097Z,3.53
2022-11-23T11:26:09.991Z,2.80
2022-11-23T11:28:41.585Z,2.40
2022-11-23T11:31:48.037Z,2.50
2022-11-23T11:34:22.747Z,2.00
2022-11-23T11:36:58.326Z,2.20
2022-11-23T11:39:31.849Z,2.40
2022-11-23T11:42:04.439Z,2.40
2022-11-23T11:44:37.226Z,2.20
2022-11-23T11:47:26.040Z,2.00
2022-11-23T11:49:59.024Z,4.30
2022-11-23T11:52:30.980Z,2.90
2022-11-23T11:55:05.395Z,4.57
2022-11-23T11:57:37.502Z,4.40
2022-11-23T12:00:12.362Z,2.80
2022-11-23T12:02:51.937Z,2.50
2022-11-23T12:05:25.288Z,1.87
2022-11-23T12:08:02.094Z,2.40
2022-11-23T12:10:37.651Z,2.10
2022-11-23T12:13:06.278Z,1.67
2022-11-23T12:15:49.436Z,2.90
2022-11-23T12:18:47.599Z,2.47
2022-11-23T12:21:32.156Z,2.30
2022-11-23T12:24:13.667Z,1.73
2022-11-23T12:26:49.083Z,2.57
2022-11-23T12:29:49.637Z,1.67
2022-11-23T12:32:31.942Z,2.23
2022-11-23T12:35:23.579Z,2.10
2022-11-23T12:38:05.145Z,1.70
2022-11-23T12:40:45.329Z,1.67
2022-11-23T12:43:16.317Z,1.70
2022-11-23T12:46:11.741Z,1.70
2022-11-23T12:48:52.239Z,2.07
2022-11-23T12:51:30.697Z,2.00
2022-11-23T12:54:16.059Z,1.80
2022-11-23T12:56:58.549Z,2.03
2022-11-23T12:59:31.397Z,1.63
2022-11-23T13:02:06.038Z,1.90
2022-11-23T13:04:55.720Z,1.70
2022-11-23T13:08:03.042Z,1.50
2022-11-23T13:10:46.029Z,2.47
2022-11-23T13:13:30.321Z,1.50
2022-11-23T13:16:22.575Z,2.03
2022-11-23T13:19:10.426Z,1.60
2022-11-23T13:21:40.680Z,2.13
2022-11-23T13:24:32.529Z,2.20
2022-11-23T13:27:44.095Z,1.90
2022-11-23T13:30:32.100Z,2.07
2022-11-23T13:33:32.850Z,2.67
2022-11-23T13:36:09.465Z,1.80
2022-11-23T13:38:42.856Z,1.37
2022-11-23T13:41:55.808Z,1.43
2022-11-23T13:44:27.877Z,1.47
2022-11-23T13:47:19.942Z,1.40
2022-11-23T13:49:50.012Z,1.33
2022-11-23T13:52:28.352Z,1.60
2022-11-23T13:55:07.404Z,1.40
2022-11-23T13:57:38.228Z,1.27
2022-11-23T14:00:48.588Z,2.30
2022-11-23T14:03:52.064Z,2.13
2022-11-23T14:06:41.668Z,2.73
2022-11-23T14:09:16.992Z,3.00
2022-11-23T14:11:55.268Z,2.70
2022-11-23T14:14:27.618Z,5.10
2022-11-23T14:17:22.399Z,3.27
2022-11-23T14:20:25.067Z,2.40
2022-11-23T14:23:13.382Z,2.00
2022-11-23T14:25:51.734Z,1.67
2022-11-23T14:28:34.914Z,2.30
2022-11-23T14:31:17.275Z,5.30
2022-11-23T14:33:53.694Z,2.07
2022-11-23T14:36:31.285Z,1.80
2022-11-23T14:39:27.652Z,2.20
2022-11-23T14:42:00.455Z,2.97
2022-11-23T14:44:35.559Z,1.93
2022-11-23T14:47:07.999Z,2.20
2022-11-23T14:49:37.979Z,2.03
2022-11-23T14:52:06.807Z,1.80
2022-11-23T14:54:36.071Z,5.90
2022-11-23T14:57:05.639Z,3.37
2022-11-23T14:59:37.431Z,4.93
2022-11-23T15:02:15.515Z,1.93
2022-11-23T15:04:58.128Z,3.47
2022-11-23T15:07:29.309Z,5.30
2022-11-23T15:10:07.996Z,4.90
2022-11-23T15:12:43.924Z,6.40
2022-11-23T15:15:20.142Z,5.80
2022-11-23T15:17:55.659Z,6.33
2022-11-23T15:20:29.584Z,9.33
2022-11-23T15:22:57.497Z,4.83
2022-11-23T15:25:25.729Z,6.43
2022-11-23T15:27:53.778Z,11.13
2022-11-23T15:30:23.510Z,23.73
2022-11-23T15:32:59.146Z,11.07
2022-11-23T15:35:33.906Z,25.27
2022-11-23T15:38:02.844Z,17.47
2022-11-23T15:40:36.242Z,19.97
2022-11-23T15:43:04.743Z,21.60
2022-11-23T15:45:58.122Z,7.53
2022-11-23T15:48:31.966Z,9.30
2022-11-23T15:51:04.199Z,11.60
2022-11-23T15:53:34.369Z,8.90
2022-11-23T15:56:05.823Z,12.67
2022-11-23T15:58:35.169Z,10.07
2022-11-23T16:01:08.634Z,12.20
2022-11-23T16:03:43.363Z,15.50
2022-11-23T16:06:24.775Z,26.77
2022-11-23T16:08:52.996Z,20.90
2022-11-23T16:11:34.329Z,14.53
2022-11-23T16:14:17.570Z,18.20
2022-11-23T16:16:47.521Z,19.90
2022-11-23T16:19:25.359Z,27.67
2022-11-23T16:22:02.177Z,32.50
2022-11-23T16:24:33.212Z,14.13
2022-11-23T16:27:01.649Z,15.10
2022-11-23T16:29:34.846Z,15.88
2022-11-23T16:32:06.981Z,10.95
2022-11-23T16:34:35.397Z,8.13
2022-11-23T16:37:05.345Z,9.50
2022-11-23T16:39:33.449Z,10.17
2022-11-23T16:42:01.407Z,6.88
2022-11-23T16:44:31.241Z,12.40
2022-11-23T16:47:19.630Z,10.00
2022-11-23T16:49:47.560Z,10.50
2022-11-23T16:52:17.067Z,11.50
2022-11-23T16:54:45.366Z,6.70
2022-11-23T16:57:20.792Z,10.60
2022-11-23T16:59:49.140Z,10.95
2022-11-23T17:02:17.818Z,10.75
2022-11-23T17:04:46.334Z,8.20
2022-11-23T17:07:16.861Z,10.30
2022-11-23T17:09:44.872Z,10.37
2022-11-23T17:12:17.835Z,10.67
2022-11-23T17:14:48.429Z,8.25
2022-11-23T17:17:21.587Z,14.70
2022-11-23T17:19:50.704Z,10.20
2022-11-23T17:22:21.228Z,9.38
2022-11-23T17:24:50.086Z,12.93
2022-11-23T17:27:22.353Z,8.47
2022-11-23T17:29:58.978Z,3.53
2022-11-23T17:32:27.435Z,2.77
2022-11-23T17:34:55.668Z,4.88
2022-11-23T17:37:25.951Z,11.83
2022-11-23T17:39:54.132Z,11.47
2022-11-23T17:42:22.392Z,13.70
2022-11-23T17:44:50.466Z,8.67
2022-11-23T17:47:24.705Z,7.30
2022-11-23T17:49:53.081Z,6.67
2022-11-23T17:52:21.252Z,7.90
2022-11-23T17:54:50.864Z,6.70
2022-11-23T17:57:21.104Z,5.77
2022-11-23T17:59:49.021Z,3.00
2022-11-23T18:02:17.023Z,6.10
2022-11-23T18:04:45.096Z,3.27
2022-11-23T18:07:14.603Z,2.83
2022-11-23T18:09:42.776Z,2.40
2022-11-23T18:12:12.149Z,1.80
2022-11-23T18:14:40.094Z,2.20
2022-11-23T18:17:08.021Z,3.30
2022-11-23T18:19:36.039Z,2.20
2022-11-23T18:22:03.983Z,4.60
2022-11-23T18:24:31.950Z,2.60
2022-11-23T18:26:59.930Z,2.72
2022-11-23T18:29:29.422Z,2.03
2022-11-23T18:31:57.450Z,2.00
2022-11-23T18:34:25.518Z,1.87
2022-11-23T18:36:53.549Z,2.10
2022-11-23T18:39:21.526Z,1.67
2022-11-23T18:41:49.512Z,1.70
2022-11-23T18:44:17.407Z,3.03
2022-11-23T18:46:46.884Z,2.57
2022-11-23T18:49:14.852Z,2.70
2022-11-23T18:51:43.209Z,2.30
2022-11-23T18:54:11.739Z,3.43
2022-11-23T18:56:39.871Z,9.63
2022-11-23T18:59:12.752Z,16.60
2022-11-23T19:01:48.708Z,15.13
2022-11-23T19:04:17.703Z,10.87
2022-11-23T19:06:45.701Z,7.83
2022-11-23T19:09:15.211Z,5.80
2022-11-23T19:11:43.183Z,4.70
2022-11-23T19:14:11.790Z,20.30
2022-11-23T19:16:39.867Z,13.63
2022-11-23T19:19:09.472Z,10.43
2022-11-23T19:21:37.898Z,5.87
2022-11-23T19:24:07.398Z,4.88
2022-11-23T19:26:35.382Z,4.43
2022-11-23T19:29:03.740Z,3.00
2022-11-23T19:31:33.027Z,2.73
2022-11-23T19:34:02.982Z,2.53
2022-11-23T19:36:33.267Z,2.17
2022-11-23T19:39:01.318Z,19.20
2022-11-23T19:41:30.905Z,11.17
2022-11-23T19:44:00.820Z,4.73
2022-11-23T19:46:29.855Z,28.63
2022-11-23T19:48:58.555Z,10.33
2022-11-23T19:51:27.560Z,5.57
2022-11-23T19:53:58.037Z,3.67
2022-11-23T19:56:28.782Z,3.80
2022-11-23T19:58:58.689Z,3.47
2022-11-23T20:01:28.868Z,7.37
2022-11-23T20:04:02.858Z,4.20
2022-11-23T20:06:37.113Z,4.13
2022-11-23T20:09:08.594Z,5.70
2022-11-23T20:11:37.565Z,6.50
2022-11-23T20:14:05.689Z,12.07
2022-11-23T20:16:34.399Z,9.80
2022-11-23T20:19:04.225Z,7.33
2022-11-23T20:21:33.591Z,5.60
2022-11-23T20:24:05.572Z,3.87
2022-11-23T20:26:37.149Z,4.20
2022-11-23T20:29:06.243Z,4.30
2022-11-23T20:31:35.243Z,6.33
2022-11-23T20:34:07.130Z,5.33
2022-11-23T20:36:37.887Z,3.90
2022-11-23T20:39:07.927Z,3.63
2022-11-23T20:41:38.155Z,2.80
2022-11-23T20:44:07.774Z,4.03
2022-11-23T20:47:00.804Z,2.55
2022-11-23T20:49:23.998Z,2.42
2022-11-23T20:51:51.987Z,3.40
2022-11-23T20:54:19.971Z,2.88
2022-11-23T20:56:49.326Z,3.03
2022-11-23T20:59:17.391Z,2.83
2022-11-23T21:01:45.452Z,3.03
2022-11-23T21:04:13.505Z,2.70
2022-11-23T21:06:41.639Z,2.93
2022-11-23T21:09:11.070Z,3.00
2022-11-23T21:11:56.591Z,3.57
2022-11-23T21:14:27.590Z,3.40
2022-11-23T21:16:58.632Z,2.90
2022-11-23T21:19:28.177Z,3.70
2022-11-23T21:21:56.936Z,3.20
2022-11-23T21:24:25.424Z,4.77
2022-11-23T21:26:53.391Z,3.90
2022-11-23T21:29:22.018Z,4.17
2022-11-23T21:31:51.753Z,3.70
2022-11-23T21:34:21.401Z,4.60
2022-11-23T21:36:50.195Z,4.90
2022-11-23T21:39:18.582Z,3.90
2022-11-23T21:41:47.454Z,4.22
2022-11-23T21:44:15.543Z,4.22
2022-11-23T21:46:43.988Z,4.23
2022-11-23T21:49:13.506Z,4.65
2022-11-23T21:51:42.700Z,4.10
2022-11-23T21:54:14.312Z,3.70
2022-11-23T21:56:42.997Z,4.18
2022-11-23T21:59:11.113Z,3.93
2022-11-23T22:01:39.494Z,3.83
2022-11-23T22:04:09.780Z,3.40
2022-11-23T22:06:39.822Z,3.50
2022-11-23T22:09:09.449Z,3.45
2022-11-23T22:11:41.136Z,3.50
2022-11-23T22:14:11.627Z,3.13
2022-11-23T22:16:42.474Z,3.55
2022-11-23T22:19:12.140Z,3.13
2022-11-23T22:21:43.374Z,3.33
2022-11-23T22:24:13.614Z,3.15
2022-11-23T22:26:41.873Z,3.60
2022-11-23T22:29:10.049Z,3.63
2022-11-23T22:31:39.184Z,3.20
2022-11-23T22:34:11.708Z,3.73
2022-11-23T22:36:41.180Z,3.90
2022-11-23T22:39:09.523Z,3.78
2022-11-23T22:41:38.218Z,3.50
2022-11-23T22:44:07.914Z,3.13
2022-11-23T22:46:36.417Z,3.27
2022-11-23T22:49:04.767Z,3.67
2022-11-23T22:51:33.040Z,3.43
2022-11-23T22:54:03.155Z,3.63
2022-11-23T22:56:31.847Z,3.67
2022-11-23T22:59:00.234Z,3.10
2022-11-23T23:01:30.438Z,2.97
2022-11-23T23:04:00.464Z,3.47
2022-11-23T23:06:30.375Z,3.33
2022-11-23T23:08:59.813Z,3.10
2022-11-23T23:11:30.952Z,3.20
2022-11-23T23:13:59.283Z,2.90
2022-11-23T23:16:27.604Z,2.87
2022-11-23T23:18:56.765Z,3.40
2022-11-23T23:21:25.267Z,3.47
2022-11-23T23:23:56.529Z,3.73
2022-11-23T23:26:26.370Z,3.10
2022-11-23T23:28:57.032Z,2.90
2022-11-23T23:31:25.470Z,3.00
2022-11-23T23:33:54.565Z,3.22
2022-11-23T23:36:23.916Z,2.97
2022-11-23T23:38:52.422Z,4.10
2022-11-23T23:41:20.853Z,2.93
2022-11-23T23:43:49.067Z,2.70
2022-11-23T23:46:18.777Z,2.20
2022-11-23T23:48:47.286Z,2.50
2022-11-23T23:51:17.299Z,3.10
2022-11-23T23:53:46.120Z,3.30
2022-11-23T23:56:16.150Z,3.07
2022-11-23T23:58:45.807Z,3.10
